Tuesday, July 29, 2014
12:50 UTC
  |  Log In   |  Register Free
Airport Search:

Dawson Municipal Airport
(16J)

Dawson Municipal Airport Diagram
No Airport Diagram Available

FAA data valid effective July 24, 2014 until September 18, 2014 (unless otherwise noted).

 
 
 
 
 
 
 
 
 
 
 
 
 
 

Current Aviation Weather for Dawson Municipal Airport (16J)

The most recent METAR observation for KABY was updated at: 1853 UTC
METAR Summary (Translated METAR)
KABY
281853Z 25013G19KT 10SM CLR 35/22 A2994 RMK AO2 SLP136 T03500222
KMGR
(33.7 nm SE from KABY)
281835Z AUTO 27011G19KT 10SM CLR 35/21 A2996 RMK AO2 LTG DSNT S AND SW
TAF Summary (Translated TAF)
KABY
291120Z 2912/3012 34010KT P6SM SKC FM300000 33003KT P6SM SKC
  Airport Weather Conditions for 16J

Current weather conditions are
not available for 16J


The nearest NOAA weather station
is at ABY, (17 nm SE from 16J)
  
 Current Weather at ABY
71° F
Fair
North winds at 0.0 mph
ABY NOAA Radar

Pressure: 29.98 in
Humidity: 84%
Wind: Calm
Dew Point: 66.0°F
Visibility: 10.00 mi


Airport Weather Forecast for 16J

Translated METAR and TAF for KABY
Translated METAR for KABY (1244 UTC 29 July 2014)
found at http://aviationweather.gov/adds/metars/
 
METAR text: KABY 291153Z 00000KT 10SM CLR 22/19 A2998 RMK AO2 SLP150 T02170189 10222 20200 53009
Conditions at: KABY (ALBANY , GA, US) observed 1153 UTC 29 July 2014
Temperature: 21.7°C (71°F)
Dewpoint: 18.9°C (66°F) [RH = 84%]
Pressure (altimeter): 29.98 inches Hg (1015.3 mb)
[Sea-level pressure: 1015.0 mb]
Winds: calm
Visibility: 10 or more miles (16+ km)
Ceiling: at least 12,000 feet AGL
Clouds: sky clear below 12,000 feet AGL
Weather: no significant weather observed at this time
Translated TAF for KABY
Forecast for: KABY (ALBANY , GA, US)
TAF Text: KABY 291120Z 2912/3012 34010KT P6SM SKC
Forecast period: 1200 UTC 29 July 2014 to 0000 UTC 30 July 2014
Forecast type: FROM: standard forecast or significant change
Winds: from the NNW (340 degrees) at 12 MPH (10 knots; 5.2 m/s)
Visibility: 6 or more miles (10+ km)
Clouds: clear skies
Weather: no significant weather forecast for this period
TAF Text: FM300000 33003KT P6SM SKC
Forecast period: 0000 to 1200 UTC 30 July 2014
Forecast type: FROM: standard forecast or significant change
Winds: from the NNW (330 degrees) at 3 MPH (3 knots; 1.6 m/s)
Visibility: 6 or more miles (10+ km)
Clouds: clear skies
Weather: no significant weather forecast for this period

Find All Airport Services Find A Hotel Find A Rental Car Find A Golf Course Find A Restaurant $100 Hamburger



FBO's on the Field
FBO Company Facility Photos Services Transportation Aviation Fuel Prices: Prices include tax
Catering Weather Repair Courtesy Rental Type 100LL JetA JetA+ MOGAS 8087
 
Dawson/Terrell Co. Airport

This FBO has not yet been rated
FS:Independent
Last Updated: Jul-23
Login to update fuel prices
SS:
Contact Dawson/Terrell Co. AirportMore FBO Information
 
Add another FBO Facility Photos Catering Weather Repair Courtesy Rental Type 100LL JetA JetA+ MOGAS 8087
Services Transportation Aviation Fuel Prices: Prices include tax


GlobalAir.com Airport Resource Center model-print
model-print
model-print
model-print